sensor_id;sensor_type;location;lat;lon;timestamp;P1;durP1;ratioP1;P2;durP2;ratioP2
37284;SDS011;23172;53.550;9.964;2022-08-19T00:02:08;59.67;;;53.90;;
37284;SDS011;23172;53.550;9.964;2022-08-19T00:07:09;51.75;;;46.50;;
37284;SDS011;23172;53.550;9.964;2022-08-19T00:12:13;49.30;;;44.42;;
37284;SDS011;23172;53.550;9.964;2022-08-19T00:17:15;55.88;;;49.88;;
37284;SDS011;23172;53.550;9.964;2022-08-19T00:22:17;47.75;;;42.67;;
37284;SDS011;23172;53.550;9.964;2022-08-19T00:27:20;50.15;;;45.38;;
37284;SDS011;23172;53.550;9.964;2022-08-19T00:32:22;48.88;;;41.97;;
37284;SDS011;23172;53.550;9.964;2022-08-19T00:37:24;49.50;;;44.60;;
37284;SDS011;23172;53.550;9.964;2022-08-19T00:42:28;54.05;;;48.97;;
37284;SDS011;23172;53.550;9.964;2022-08-19T00:47:30;46.83;;;38.88;;
37284;SDS011;23172;53.550;9.964;2022-08-19T00:52:33;56.80;;;51.25;;
37284;SDS011;23172;53.550;9.964;2022-08-19T00:57:41;52.55;;;44.40;;
37284;SDS011;23172;53.550;9.964;2022-08-19T01:02:47;52.63;;;47.20;;
37284;SDS011;23172;53.550;9.964;2022-08-19T01:07:49;58.13;;;52.15;;
37284;SDS011;23172;53.550;9.964;2022-08-19T01:12:53;54.15;;;48.58;;
37284;SDS011;23172;53.550;9.964;2022-08-19T01:17:57;55.35;;;49.47;;
37284;SDS011;23172;53.550;9.964;2022-08-19T01:23:04;51.28;;;46.28;;
37284;SDS011;23172;53.550;9.964;2022-08-19T01:28:06;55.50;;;50.38;;
37284;SDS011;23172;53.550;9.964;2022-08-19T01:33:09;52.53;;;43.15;;
37284;SDS011;23172;53.550;9.964;2022-08-19T01:38:20;50.10;;;43.28;;
37284;SDS011;23172;53.550;9.964;2022-08-19T01:43:25;57.35;;;51.38;;
37284;SDS011;23172;53.550;9.964;2022-08-19T01:48:26;54.47;;;49.03;;
37284;SDS011;23172;53.550;9.964;2022-08-19T01:53:31;48.75;;;43.08;;
37284;SDS011;23172;53.550;9.964;2022-08-19T01:58:35;44.63;;;39.63;;
37284;SDS011;23172;53.550;9.964;2022-08-19T02:03:40;51.20;;;45.45;;
37284;SDS011;23172;53.550;9.964;2022-08-19T02:08:43;49.80;;;45.08;;
37284;SDS011;23172;53.550;9.964;2022-08-19T02:13:48;47.00;;;41.97;;
37284;SDS011;23172;53.550;9.964;2022-08-19T02:18:50;49.63;;;44.20;;
37284;SDS011;23172;53.550;9.964;2022-08-19T02:23:53;44.08;;;39.95;;
37284;SDS011;23172;53.550;9.964;2022-08-19T02:28:55;50.22;;;45.10;;
37284;SDS011;23172;53.550;9.964;2022-08-19T02:33:57;43.30;;;39.10;;
37284;SDS011;23172;53.550;9.964;2022-08-19T02:39:00;36.95;;;33.55;;
37284;SDS011;23172;53.550;9.964;2022-08-19T02:44:02;72.63;;;54.15;;
37284;SDS011;23172;53.550;9.964;2022-08-19T02:49:06;41.35;;;37.33;;
37284;SDS011;23172;53.550;9.964;2022-08-19T02:54:10;41.35;;;36.80;;
37284;SDS011;23172;53.550;9.964;2022-08-19T02:59:13;40.47;;;36.25;;
37284;SDS011;23172;53.550;9.964;2022-08-19T03:04:15;48.83;;;43.80;;
37284;SDS011;23172;53.550;9.964;2022-08-19T03:09:19;44.92;;;33.97;;
37284;SDS011;23172;53.550;9.964;2022-08-19T03:14:21;47.08;;;36.88;;
37284;SDS011;23172;53.550;9.964;2022-08-19T03:19:23;38.95;;;34.67;;
37284;SDS011;23172;53.550;9.964;2022-08-19T03:24:26;45.92;;;34.83;;
37284;SDS011;23172;53.550;9.964;2022-08-19T03:29:30;54.92;;;48.80;;
37284;SDS011;23172;53.550;9.964;2022-08-19T03:34:33;49.17;;;38.95;;
37284;SDS011;23172;53.550;9.964;2022-08-19T03:39:39;40.25;;;34.30;;
37284;SDS011;23172;53.550;9.964;2022-08-19T03:44:42;47.55;;;42.65;;
37284;SDS011;23172;53.550;9.964;2022-08-19T03:49:44;48.92;;;40.97;;
37284;SDS011;23172;53.550;9.964;2022-08-19T03:54:48;51.55;;;45.95;;
37284;SDS011;23172;53.550;9.964;2022-08-19T03:59:50;46.38;;;38.67;;
37284;SDS011;23172;53.550;9.964;2022-08-19T04:04:53;47.45;;;40.83;;
37284;SDS011;23172;53.550;9.964;2022-08-19T04:09:56;46.47;;;41.50;;
37284;SDS011;23172;53.550;9.964;2022-08-19T04:14:59;44.40;;;39.75;;
37284;SDS011;23172;53.550;9.964;2022-08-19T04:20:01;45.65;;;38.60;;
37284;SDS011;23172;53.550;9.964;2022-08-19T04:25:05;45.42;;;40.63;;
37284;SDS011;23172;53.550;9.964;2022-08-19T04:30:07;49.63;;;36.95;;
37284;SDS011;23172;53.550;9.964;2022-08-19T04:35:10;46.30;;;39.20;;
37284;SDS011;23172;53.550;9.964;2022-08-19T04:40:13;43.25;;;38.83;;
37284;SDS011;23172;53.550;9.964;2022-08-19T04:45:33;49.42;;;39.75;;
37284;SDS011;23172;53.550;9.964;2022-08-19T04:50:39;42.30;;;37.78;;
37284;SDS011;23172;53.550;9.964;2022-08-19T04:55:44;46.70;;;38.50;;
37284;SDS011;23172;53.550;9.964;2022-08-19T05:00:46;39.30;;;34.13;;
37284;SDS011;23172;53.550;9.964;2022-08-19T05:05:48;39.80;;;32.20;;
37284;SDS011;23172;53.550;9.964;2022-08-19T05:10:51;39.28;;;33.15;;
37284;SDS011;23172;53.550;9.964;2022-08-19T05:15:53;38.53;;;29.80;;
37284;SDS011;23172;53.550;9.964;2022-08-19T05:20:56;39.75;;;35.47;;
37284;SDS011;23172;53.550;9.964;2022-08-19T05:26:17;37.20;;;33.63;;
37284;SDS011;23172;53.550;9.964;2022-08-19T05:31:19;32.45;;;28.40;;
37284;SDS011;23172;53.550;9.964;2022-08-19T05:36:20;40.75;;;37.15;;
37284;SDS011;23172;53.550;9.964;2022-08-19T05:41:24;30.15;;;26.95;;
37284;SDS011;23172;53.550;9.964;2022-08-19T05:46:29;37.20;;;33.30;;
37284;SDS011;23172;53.550;9.964;2022-08-19T05:51:31;29.52;;;26.70;;
37284;SDS011;23172;53.550;9.964;2022-08-19T05:56:35;33.22;;;30.08;;
37284;SDS011;23172;53.550;9.964;2022-08-19T06:01:38;36.20;;;32.30;;
37284;SDS011;23172;53.550;9.964;2022-08-19T06:06:41;35.78;;;32.10;;
37284;SDS011;23172;53.550;9.964;2022-08-19T06:11:45;39.67;;;32.88;;
37284;SDS011;23172;53.550;9.964;2022-08-19T06:16:48;29.70;;;26.50;;
37284;SDS011;23172;53.550;9.964;2022-08-19T06:21:52;33.08;;;29.70;;
37284;SDS011;23172;53.550;9.964;2022-08-19T06:26:56;33.75;;;29.17;;
37284;SDS011;23172;53.550;9.964;2022-08-19T06:31:59;30.80;;;28.00;;
37284;SDS011;23172;53.550;9.964;2022-08-19T06:37:03;30.25;;;27.30;;
37284;SDS011;23172;53.550;9.964;2022-08-19T06:42:07;37.83;;;31.63;;
37284;SDS011;23172;53.550;9.964;2022-08-19T06:47:13;41.90;;;33.40;;
37284;SDS011;23172;53.550;9.964;2022-08-19T06:52:17;36.97;;;33.17;;
37284;SDS011;23172;53.550;9.964;2022-08-19T06:57:21;42.05;;;30.55;;
37284;SDS011;23172;53.550;9.964;2022-08-19T07:02:23;43.50;;;38.97;;
37284;SDS011;23172;53.550;9.964;2022-08-19T07:07:26;43.17;;;35.65;;
37284;SDS011;23172;53.550;9.964;2022-08-19T07:12:30;36.38;;;32.65;;
37284;SDS011;23172;53.550;9.964;2022-08-19T07:17:34;36.60;;;32.92;;
37284;SDS011;23172;53.550;9.964;2022-08-19T07:22:37;34.72;;;31.45;;
37284;SDS011;23172;53.550;9.964;2022-08-19T07:27:40;35.40;;;31.67;;
37284;SDS011;23172;53.550;9.964;2022-08-19T07:32:44;35.55;;;32.15;;
37284;SDS011;23172;53.550;9.964;2022-08-19T07:37:46;31.13;;;28.48;;
37284;SDS011;23172;53.550;9.964;2022-08-19T07:42:49;35.03;;;31.73;;
37284;SDS011;23172;53.550;9.964;2022-08-19T07:47:51;38.70;;;34.70;;
37284;SDS011;23172;53.550;9.964;2022-08-19T07:52:53;31.35;;;27.38;;
37284;SDS011;23172;53.550;9.964;2022-08-19T07:57:56;42.88;;;38.47;;
37284;SDS011;23172;53.550;9.964;2022-08-19T08:02:58;36.08;;;32.38;;
37284;SDS011;23172;53.550;9.964;2022-08-19T08:08:00;30.98;;;27.92;;
37284;SDS011;23172;53.550;9.964;2022-08-19T08:13:21;37.58;;;33.35;;
37284;SDS011;23172;53.550;9.964;2022-08-19T08:18:22;39.30;;;35.17;;
37284;SDS011;23172;53.550;9.964;2022-08-19T08:23:25;41.75;;;37.63;;
37284;SDS011;23172;53.550;9.964;2022-08-19T08:28:28;43.28;;;38.65;;
37284;SDS011;23172;53.550;9.964;2022-08-19T08:33:30;41.80;;;37.28;;
37284;SDS011;23172;53.550;9.964;2022-08-19T08:38:32;45.38;;;40.83;;
37284;SDS011;23172;53.550;9.964;2022-08-19T08:43:37;44.33;;;39.90;;
37284;SDS011;23172;53.550;9.964;2022-08-19T08:48:50;43.38;;;39.05;;
37284;SDS011;23172;53.550;9.964;2022-08-19T08:53:56;45.20;;;40.38;;
37284;SDS011;23172;53.550;9.964;2022-08-19T08:59:01;45.72;;;41.42;;
37284;SDS011;23172;53.550;9.964;2022-08-19T09:04:08;45.80;;;41.35;;
37284;SDS011;23172;53.550;9.964;2022-08-19T09:09:14;50.00;;;44.83;;
37284;SDS011;23172;53.550;9.964;2022-08-19T09:14:22;48.15;;;44.08;;
37284;SDS011;23172;53.550;9.964;2022-08-19T09:19:35;49.22;;;44.55;;
37284;SDS011;23172;53.550;9.964;2022-08-19T09:24:48;44.60;;;40.08;;
37284;SDS011;23172;53.550;9.964;2022-08-19T09:29:51;48.40;;;43.40;;
37284;SDS011;23172;53.550;9.964;2022-08-19T09:34:54;33.25;;;28.98;;
37284;SDS011;23172;53.550;9.964;2022-08-19T09:39:58;52.53;;;46.97;;
37284;SDS011;23172;53.550;9.964;2022-08-19T09:45:01;41.53;;;37.72;;
37284;SDS011;23172;53.550;9.964;2022-08-19T09:50:05;45.38;;;41.17;;
37284;SDS011;23172;53.550;9.964;2022-08-19T09:55:09;47.47;;;43.38;;
37284;SDS011;23172;53.550;9.964;2022-08-19T10:00:13;45.47;;;41.50;;
37284;SDS011;23172;53.550;9.964;2022-08-19T10:05:15;44.97;;;40.58;;
37284;SDS011;23172;53.550;9.964;2022-08-19T10:10:35;42.50;;;38.00;;
37284;SDS011;23172;53.550;9.964;2022-08-19T10:15:38;48.70;;;44.03;;
37284;SDS011;23172;53.550;9.964;2022-08-19T10:20:40;51.95;;;47.25;;
37284;SDS011;23172;53.550;9.964;2022-08-19T10:25:42;45.35;;;40.65;;
37284;SDS011;23172;53.550;9.964;2022-08-19T10:30:46;37.50;;;32.78;;
37284;SDS011;23172;53.550;9.964;2022-08-19T10:35:48;52.05;;;46.95;;
37284;SDS011;23172;53.550;9.964;2022-08-19T10:40:50;47.25;;;43.15;;
37284;SDS011;23172;53.550;9.964;2022-08-19T10:45:54;44.60;;;40.03;;
37284;SDS011;23172;53.550;9.964;2022-08-19T10:50:59;40.55;;;36.40;;
37284;SDS011;23172;53.550;9.964;2022-08-19T10:56:18;43.72;;;39.05;;
37284;SDS011;23172;53.550;9.964;2022-08-19T11:01:39;39.05;;;35.22;;
37284;SDS011;23172;53.550;9.964;2022-08-19T11:06:43;41.25;;;36.10;;
37284;SDS011;23172;53.550;9.964;2022-08-19T11:11:47;42.03;;;37.05;;
37284;SDS011;23172;53.550;9.964;2022-08-19T11:16:51;43.22;;;38.60;;
37284;SDS011;23172;53.550;9.964;2022-08-19T11:21:56;41.75;;;37.33;;
37284;SDS011;23172;53.550;9.964;2022-08-19T11:27:03;36.63;;;32.97;;
37284;SDS011;23172;53.550;9.964;2022-08-19T11:32:10;44.40;;;40.50;;
37284;SDS011;23172;53.550;9.964;2022-08-19T11:37:12;40.33;;;36.63;;
37284;SDS011;23172;53.550;9.964;2022-08-19T11:42:15;47.88;;;43.58;;
37284;SDS011;23172;53.550;9.964;2022-08-19T11:47:37;39.65;;;35.65;;
37284;SDS011;23172;53.550;9.964;2022-08-19T11:52:39;33.92;;;30.50;;
37284;SDS011;23172;53.550;9.964;2022-08-19T11:57:41;43.65;;;39.05;;
37284;SDS011;23172;53.550;9.964;2022-08-19T12:02:45;36.55;;;32.90;;
37284;SDS011;23172;53.550;9.964;2022-08-19T12:07:47;42.30;;;38.67;;
37284;SDS011;23172;53.550;9.964;2022-08-19T12:12:49;43.67;;;39.08;;
37284;SDS011;23172;53.550;9.964;2022-08-19T12:17:52;32.72;;;29.27;;
37284;SDS011;23172;53.550;9.964;2022-08-19T12:22:56;37.83;;;34.10;;
37284;SDS011;23172;53.550;9.964;2022-08-19T12:27:58;40.00;;;35.97;;
37284;SDS011;23172;53.550;9.964;2022-08-19T12:33:01;35.38;;;32.42;;
37284;SDS011;23172;53.550;9.964;2022-08-19T12:38:03;42.70;;;38.80;;
37284;SDS011;23172;53.550;9.964;2022-08-19T12:43:06;43.38;;;38.97;;
37284;SDS011;23172;53.550;9.964;2022-08-19T12:48:09;39.40;;;35.50;;
37284;SDS011;23172;53.550;9.964;2022-08-19T12:53:13;37.30;;;33.50;;
37284;SDS011;23172;53.550;9.964;2022-08-19T12:58:16;38.40;;;34.50;;
37284;SDS011;23172;53.550;9.964;2022-08-19T13:03:19;39.72;;;35.90;;
37284;SDS011;23172;53.550;9.964;2022-08-19T13:08:22;44.65;;;40.65;;
37284;SDS011;23172;53.550;9.964;2022-08-19T13:13:24;40.03;;;36.08;;
37284;SDS011;23172;53.550;9.964;2022-08-19T13:18:27;48.33;;;43.40;;
37284;SDS011;23172;53.550;9.964;2022-08-19T13:23:29;39.40;;;35.40;;
37284;SDS011;23172;53.550;9.964;2022-08-19T13:28:32;38.40;;;34.40;;
37284;SDS011;23172;53.550;9.964;2022-08-19T13:33:49;47.88;;;43.53;;
37284;SDS011;23172;53.550;9.964;2022-08-19T13:38:51;39.55;;;34.30;;
37284;SDS011;23172;53.550;9.964;2022-08-19T13:43:53;38.05;;;34.75;;
37284;SDS011;23172;53.550;9.964;2022-08-19T13:48:57;39.15;;;35.13;;
37284;SDS011;23172;53.550;9.964;2022-08-19T13:53:58;41.47;;;37.22;;
37284;SDS011;23172;53.550;9.964;2022-08-19T13:59:00;42.42;;;38.47;;
37284;SDS011;23172;53.550;9.964;2022-08-19T14:04:04;37.28;;;33.63;;
37284;SDS011;23172;53.550;9.964;2022-08-19T14:09:06;40.08;;;35.35;;
37284;SDS011;23172;53.550;9.964;2022-08-19T14:14:09;43.53;;;39.42;;
37284;SDS011;23172;53.550;9.964;2022-08-19T14:19:13;42.78;;;38.80;;
37284;SDS011;23172;53.550;9.964;2022-08-19T14:24:15;38.85;;;35.25;;
37284;SDS011;23172;53.550;9.964;2022-08-19T14:29:17;45.55;;;41.38;;
37284;SDS011;23172;53.550;9.964;2022-08-19T14:34:20;42.78;;;38.60;;
37284;SDS011;23172;53.550;9.964;2022-08-19T14:39:22;35.63;;;31.98;;
37284;SDS011;23172;53.550;9.964;2022-08-19T14:44:24;45.72;;;39.58;;
37284;SDS011;23172;53.550;9.964;2022-08-19T14:49:27;49.42;;;44.60;;
37284;SDS011;23172;53.550;9.964;2022-08-19T14:54:28;43.03;;;38.60;;
37284;SDS011;23172;53.550;9.964;2022-08-19T14:59:31;46.08;;;41.47;;
37284;SDS011;23172;53.550;9.964;2022-08-19T15:04:34;44.15;;;39.72;;
37284;SDS011;23172;53.550;9.964;2022-08-19T15:09:36;47.40;;;42.65;;
37284;SDS011;23172;53.550;9.964;2022-08-19T15:14:38;45.15;;;41.05;;
37284;SDS011;23172;53.550;9.964;2022-08-19T15:19:43;52.97;;;47.70;;
37284;SDS011;23172;53.550;9.964;2022-08-19T15:24:45;44.63;;;40.10;;
37284;SDS011;23172;53.550;9.964;2022-08-19T15:29:47;42.05;;;37.95;;
37284;SDS011;23172;53.550;9.964;2022-08-19T15:34:50;46.80;;;42.17;;
37284;SDS011;23172;53.550;9.964;2022-08-19T15:39:52;44.90;;;41.00;;
37284;SDS011;23172;53.550;9.964;2022-08-19T15:44:54;59.42;;;54.60;;
37284;SDS011;23172;53.550;9.964;2022-08-19T15:49:58;48.67;;;44.42;;
37284;SDS011;23172;53.550;9.964;2022-08-19T15:55:00;56.17;;;50.40;;
37284;SDS011;23172;53.550;9.964;2022-08-19T16:00:03;50.40;;;45.63;;
37284;SDS011;23172;53.550;9.964;2022-08-19T16:05:25;53.90;;;48.72;;
37284;SDS011;23172;53.550;9.964;2022-08-19T16:10:44;64.05;;;57.88;;
37284;SDS011;23172;53.550;9.964;2022-08-19T16:15:46;59.35;;;54.28;;
37284;SDS011;23172;53.550;9.964;2022-08-19T16:20:49;56.08;;;51.72;;
37284;SDS011;23172;53.550;9.964;2022-08-19T16:25:51;51.20;;;45.95;;
37284;SDS011;23172;53.550;9.964;2022-08-19T16:30:53;56.65;;;51.58;;
37284;SDS011;23172;53.550;9.964;2022-08-19T16:35:57;55.72;;;50.05;;
37284;SDS011;23172;53.550;9.964;2022-08-19T16:40:59;48.53;;;43.28;;
37284;SDS011;23172;53.550;9.964;2022-08-19T16:46:01;53.08;;;48.20;;
37284;SDS011;23172;53.550;9.964;2022-08-19T16:51:04;53.53;;;47.10;;
37284;SDS011;23172;53.550;9.964;2022-08-19T16:56:08;54.45;;;48.97;;
37284;SDS011;23172;53.550;9.964;2022-08-19T17:01:10;50.83;;;46.13;;
37284;SDS011;23172;53.550;9.964;2022-08-19T17:06:14;53.60;;;49.00;;
37284;SDS011;23172;53.550;9.964;2022-08-19T17:11:19;51.40;;;46.55;;
37284;SDS011;23172;53.550;9.964;2022-08-19T17:16:23;50.55;;;45.88;;
37284;SDS011;23172;53.550;9.964;2022-08-19T17:21:29;50.10;;;45.60;;
37284;SDS011;23172;53.550;9.964;2022-08-19T17:26:32;57.47;;;52.33;;
37284;SDS011;23172;53.550;9.964;2022-08-19T17:31:34;58.83;;;53.42;;
37284;SDS011;23172;53.550;9.964;2022-08-19T17:36:37;52.03;;;47.42;;
37284;SDS011;23172;53.550;9.964;2022-08-19T17:41:39;57.55;;;53.17;;
37284;SDS011;23172;53.550;9.964;2022-08-19T17:46:41;54.22;;;49.53;;
37284;SDS011;23172;53.550;9.964;2022-08-19T17:51:45;43.97;;;39.65;;
37284;SDS011;23172;53.550;9.964;2022-08-19T17:56:48;55.20;;;49.92;;
37284;SDS011;23172;53.550;9.964;2022-08-19T18:01:50;55.05;;;49.40;;
37284;SDS011;23172;53.550;9.964;2022-08-19T18:06:53;53.30;;;48.38;;
37284;SDS011;23172;53.550;9.964;2022-08-19T18:11:59;43.78;;;39.38;;
37284;SDS011;23172;53.550;9.964;2022-08-19T18:17:02;47.67;;;42.85;;
37284;SDS011;23172;53.550;9.964;2022-08-19T18:22:10;46.10;;;41.47;;
37284;SDS011;23172;53.550;9.964;2022-08-19T18:27:12;48.17;;;43.75;;
37284;SDS011;23172;53.550;9.964;2022-08-19T18:32:15;41.70;;;36.33;;
37284;SDS011;23172;53.550;9.964;2022-08-19T18:37:19;47.25;;;42.92;;
37284;SDS011;23172;53.550;9.964;2022-08-19T18:42:22;48.28;;;43.60;;
37284;SDS011;23172;53.550;9.964;2022-08-19T18:47:41;47.28;;;42.88;;
37284;SDS011;23172;53.550;9.964;2022-08-19T18:53:01;50.05;;;45.63;;
37284;SDS011;23172;53.550;9.964;2022-08-19T18:58:04;39.28;;;35.53;;
37284;SDS011;23172;53.550;9.964;2022-08-19T19:03:06;45.65;;;39.83;;
37284;SDS011;23172;53.550;9.964;2022-08-19T19:08:11;43.08;;;38.42;;
37284;SDS011;23172;53.550;9.964;2022-08-19T19:13:16;45.50;;;40.95;;
37284;SDS011;23172;53.550;9.964;2022-08-19T19:18:18;45.75;;;40.97;;
37284;SDS011;23172;53.550;9.964;2022-08-19T19:23:21;42.40;;;38.03;;
37284;SDS011;23172;53.550;9.964;2022-08-19T19:28:23;37.55;;;33.55;;
37284;SDS011;23172;53.550;9.964;2022-08-19T19:33:27;39.92;;;35.80;;
37284;SDS011;23172;53.550;9.964;2022-08-19T19:38:30;37.45;;;33.83;;
37284;SDS011;23172;53.550;9.964;2022-08-19T19:43:32;41.80;;;37.70;;
37284;SDS011;23172;53.550;9.964;2022-08-19T19:48:34;40.42;;;36.67;;
37284;SDS011;23172;53.550;9.964;2022-08-19T19:53:38;35.90;;;32.00;;
37284;SDS011;23172;53.550;9.964;2022-08-19T19:58:40;41.53;;;37.53;;
37284;SDS011;23172;53.550;9.964;2022-08-19T20:03:43;39.88;;;35.97;;
37284;SDS011;23172;53.550;9.964;2022-08-19T20:08:46;42.35;;;38.25;;
37284;SDS011;23172;53.550;9.964;2022-08-19T20:14:06;43.72;;;39.30;;
37284;SDS011;23172;53.550;9.964;2022-08-19T20:19:11;46.05;;;40.40;;
37284;SDS011;23172;53.550;9.964;2022-08-19T20:24:19;38.97;;;34.97;;
37284;SDS011;23172;53.550;9.964;2022-08-19T20:29:22;40.22;;;36.13;;
37284;SDS011;23172;53.550;9.964;2022-08-19T20:34:24;47.60;;;42.95;;
37284;SDS011;23172;53.550;9.964;2022-08-19T20:39:27;62.00;;;49.85;;
37284;SDS011;23172;53.550;9.964;2022-08-19T20:44:29;40.33;;;36.03;;
37284;SDS011;23172;53.550;9.964;2022-08-19T20:49:31;48.65;;;43.97;;
37284;SDS011;23172;53.550;9.964;2022-08-19T20:54:35;47.72;;;43.40;;
37284;SDS011;23172;53.550;9.964;2022-08-19T20:59:37;50.75;;;45.50;;
37284;SDS011;23172;53.550;9.964;2022-08-19T21:04:39;45.05;;;40.25;;
37284;SDS011;23172;53.550;9.964;2022-08-19T21:09:42;41.75;;;37.67;;
37284;SDS011;23172;53.550;9.964;2022-08-19T21:14:44;48.42;;;43.72;;
37284;SDS011;23172;53.550;9.964;2022-08-19T21:19:46;45.55;;;41.08;;
37284;SDS011;23172;53.550;9.964;2022-08-19T21:24:50;49.35;;;44.60;;
37284;SDS011;23172;53.550;9.964;2022-08-19T21:29:51;36.83;;;32.95;;
37284;SDS011;23172;53.550;9.964;2022-08-19T21:34:54;43.95;;;39.83;;
37284;SDS011;23172;53.550;9.964;2022-08-19T21:39:57;39.58;;;35.53;;
37284;SDS011;23172;53.550;9.964;2022-08-19T21:44:59;43.25;;;38.63;;
37284;SDS011;23172;53.550;9.964;2022-08-19T21:50:01;41.88;;;38.15;;
37284;SDS011;23172;53.550;9.964;2022-08-19T21:55:05;41.08;;;36.58;;
37284;SDS011;23172;53.550;9.964;2022-08-19T22:00:11;42.67;;;38.25;;
37284;SDS011;23172;53.550;9.964;2022-08-19T22:05:15;38.58;;;34.60;;
37284;SDS011;23172;53.550;9.964;2022-08-19T22:10:23;39.00;;;34.90;;
37284;SDS011;23172;53.550;9.964;2022-08-19T22:15:26;42.45;;;38.15;;
37284;SDS011;23172;53.550;9.964;2022-08-19T22:20:30;40.15;;;35.92;;
37284;SDS011;23172;53.550;9.964;2022-08-19T22:25:37;37.25;;;33.80;;
37284;SDS011;23172;53.550;9.964;2022-08-19T22:30:40;42.03;;;37.58;;
37284;SDS011;23172;53.550;9.964;2022-08-19T22:35:44;45.17;;;40.65;;
37284;SDS011;23172;53.550;9.964;2022-08-19T22:40:49;36.35;;;32.97;;
37284;SDS011;23172;53.550;9.964;2022-08-19T22:45:53;38.90;;;35.28;;
37284;SDS011;23172;53.550;9.964;2022-08-19T22:50:56;39.35;;;35.08;;
37284;SDS011;23172;53.550;9.964;2022-08-19T22:56:17;42.88;;;38.38;;
37284;SDS011;23172;53.550;9.964;2022-08-19T23:01:20;39.78;;;35.75;;
37284;SDS011;23172;53.550;9.964;2022-08-19T23:06:24;43.78;;;39.55;;
37284;SDS011;23172;53.550;9.964;2022-08-19T23:11:27;39.25;;;34.22;;
37284;SDS011;23172;53.550;9.964;2022-08-19T23:16:29;42.92;;;38.30;;
37284;SDS011;23172;53.550;9.964;2022-08-19T23:21:31;44.55;;;37.85;;
37284;SDS011;23172;53.550;9.964;2022-08-19T23:26:36;42.20;;;38.17;;
37284;SDS011;23172;53.550;9.964;2022-08-19T23:31:58;40.90;;;36.42;;
37284;SDS011;23172;53.550;9.964;2022-08-19T23:37:01;44.20;;;39.55;;
37284;SDS011;23172;53.550;9.964;2022-08-19T23:42:07;44.70;;;39.70;;
37284;SDS011;23172;53.550;9.964;2022-08-19T23:47:11;50.35;;;44.17;;
37284;SDS011;23172;53.550;9.964;2022-08-19T23:52:13;49.33;;;43.90;;
37284;SDS011;23172;53.550;9.964;2022-08-19T23:57:16;48.63;;;43.78;;
